Terminal Aerodrome Forecast
Issued by NWS

Home | Current Version | Previous Version | Text Only | Print | Product List | Glossary On
Versions: 1 2 3 4 5 6 7 8 9 10 11 12 13 14 15 16 17 18 19 20 21 22 23 24
526
FTUS41 KOKX 080831 AAA
TAFGON
TAF AMD
KGON 080831Z 0809/0906 04018G25KT P6SM SCT020 OVC080
     FM081000 04022G30KT 5SM -SN BR BKN015
     FM081100 01024G32KT 1SM -SN BKN007
     FM081300 01022G30KT 1/2SM SN FG BKN004
     FM082000 02016G24KT 1SM -SN BR OVC007
     FM090200 01012KT P6SM OVC015
     FM090500 01011KT P6SM OVC025=

USA.gov is the U.S. government's official web portal to all federal, state and local government web resources and services.